Time;durP1;ratioP1;P1;durP2;ratioP2;P2;SDS_P1;SDS_P2;PMS_P1;PMS_P2;Temp;Humidity;BMP_temperature;BMP_pressure;BME280_temperature;BME280_humidity;BME280_pressure;Samples;Min_cycle;Max_cycle;Signal;HPM_P1;HPM_P2
2022/09/14 00:01:52;;;;;;;283.90;154.80;;;;;;;;;;5032115;28;20187;-55
2022/09/14 00:04:19;;;;;;;299.10;157.80;;;;;;;;;;5024809;28;20222;-55
2022/09/14 00:06:46;;;;;;;276.43;148.93;;;;;;;;;;5029934;28;20239;-55
2022/09/14 00:09:22;;;;;;;314.40;162.40;;;;;;;;;;5026271;28;20192;-54
2022/09/14 00:11:48;;;;;;;251.20;136.83;;;;;;;;;;5026669;28;20267;-55
2022/09/14 00:14:15;;;;;;;324.10;170.60;;;;;;;;;;5023155;28;20227;-55
2022/09/14 00:16:41;;;;;;;264.80;146.17;;;;;;;;;;5033776;28;20373;-55
2022/09/14 00:19:08;;;;;;;296.77;162.20;;;;;;;;;;5027804;28;20547;-55
2022/09/14 00:21:38;;;;;;;304.07;154.90;;;;;;;;;;5042857;28;20533;-55
2022/09/14 00:24:05;;;;;;;307.23;157.97;;;;;;;;;;5030188;28;20195;-55
2022/09/14 00:26:32;;;;;;;346.53;176.43;;;;;;;;;;5034674;28;20578;-55
2022/09/14 00:28:59;;;;;;;235.13;133.93;;;;;;;;;;5032810;28;20344;-55
2022/09/14 00:31:25;;;;;;;228.47;133.93;;;;;;;;;;5038011;28;20668;-55
2022/09/14 00:33:53;;;;;;;464.93;223.97;;;;;;;;;;5027776;28;20242;-55
2022/09/14 00:36:24;;;;;;;331.67;173.57;;;;;;;;;;5033425;28;20672;-55
2022/09/14 00:38:50;;;;;;;256.23;143.57;;;;;;;;;;5038652;28;20661;-55
2022/09/14 00:41:22;;;;;;;257.50;143.60;;;;;;;;;;5041367;28;20188;-55
2022/09/14 00:44:11;;;;;;;232.30;135.03;;;;;;;;;;5038158;28;20212;-55
2022/09/14 00:46:39;;;;;;;288.13;154.50;;;;;;;;;;4998748;28;20199;-55
2022/09/14 00:49:07;;;;;;;224.47;134.47;;;;;;;;;;5028330;28;21368;-55
2022/09/14 00:51:33;;;;;;;236.10;136.23;;;;;;;;;;5027061;28;20388;-55
2022/09/14 00:54:03;;;;;;;331.27;167.20;;;;;;;;;;5023236;28;20203;-54
2022/09/14 00:56:30;;;;;;;298.43;154.83;;;;;;;;;;5020373;28;20687;-55
2022/09/14 00:58:58;;;;;;;313.43;163.37;;;;;;;;;;5022987;28;20187;-55
2022/09/14 01:01:25;;;;;;;334.20;169.00;;;;;;;;;;5016862;28;20234;-55
2022/09/14 01:03:51;;;;;;;329.57;171.90;;;;;;;;;;5017741;28;21434;-55
2022/09/14 01:06:17;;;;;;;311.23;164.27;;;;;;;;;;5017899;28;20206;-55
2022/09/14 01:08:54;;;;;;;272.90;147.87;;;;;;;;;;5025600;28;20265;-55
2022/09/14 01:11:26;;;;;;;295.40;158.67;;;;;;;;;;5021520;28;20258;-55
2022/09/14 01:13:58;;;;;;;320.77;164.30;;;;;;;;;;5016619;28;20222;-55
2022/09/14 01:16:27;;;;;;;322.33;170.30;;;;;;;;;;5017443;28;20427;-55
2022/09/14 01:18:57;;;;;;;306.93;161.53;;;;;;;;;;5022001;28;21350;-55
2022/09/14 01:21:28;;;;;;;374.57;188.73;;;;;;;;;;5027951;28;20509;-55
2022/09/14 01:23:59;;;;;;;293.57;156.20;;;;;;;;;;5015611;28;20204;-59
2022/09/14 01:26:37;;;;;;;471.50;222.23;;;;;;;;;;5015091;28;20267;-55
2022/09/14 01:29:13;;;;;;;234.70;134.07;;;;;;;;;;5033334;28;20544;-55
2022/09/14 01:31:45;;;;;;;329.50;169.07;;;;;;;;;;5011922;28;20280;-55
2022/09/14 01:34:14;;;;;;;349.03;178.30;;;;;;;;;;5012208;28;20204;-55
2022/09/14 01:36:44;;;;;;;337.67;169.97;;;;;;;;;;5014728;28;20294;-55
2022/09/14 01:39:10;;;;;;;324.07;163.23;;;;;;;;;;5016372;28;20264;-55
2022/09/14 01:41:37;;;;;;;281.50;146.73;;;;;;;;;;5019910;28;20180;-55
2022/09/14 01:44:07;;;;;;;257.40;142.13;;;;;;;;;;5023424;28;20775;-55
2022/09/14 01:46:37;;;;;;;262.87;142.53;;;;;;;;;;5022414;28;20179;-55
2022/09/14 01:49:12;;;;;;;268.63;145.97;;;;;;;;;;5027637;28;20262;-55
2022/09/14 01:51:40;;;;;;;340.53;173.20;;;;;;;;;;5019186;28;20317;-55
2022/09/14 01:54:09;;;;;;;270.80;149.47;;;;;;;;;;5017513;28;20208;-55
2022/09/14 01:56:41;;;;;;;323.73;165.93;;;;;;;;;;5020283;28;20204;-54
2022/09/14 01:59:15;;;;;;;263.03;144.30;;;;;;;;;;5021459;28;20184;-55
2022/09/14 02:01:45;;;;;;;347.30;170.07;;;;;;;;;;5016690;28;20188;-55
2022/09/14 02:04:13;;;;;;;266.15;144.05;;;;;;;;;;5019640;28;20219;-54
2022/09/14 02:06:41;;;;;;;331.73;163.47;;;;;;;;;;5018800;28;20218;-55
2022/09/14 02:09:09;;;;;;;260.43;140.10;;;;;;;;;;5023018;28;20188;-55
2022/09/14 02:11:36;;;;;;;294.23;156.43;;;;;;;;;;5015343;28;20191;-55
2022/09/14 02:14:02;;;;;;;287.77;152.33;;;;;;;;;;5022094;28;20516;-55
2022/09/14 02:16:28;;;;;;;290.17;156.00;;;;;;;;;;5026497;28;20294;-55
2022/09/14 02:18:54;;;;;;;295.97;156.00;;;;;;;;;;5020067;28;20179;-55
2022/09/14 02:21:23;;;;;;;318.67;161.83;;;;;;;;;;5019367;28;20230;-55
2022/09/14 02:23:49;;;;;;;231.53;131.33;;;;;;;;;;5020115;28;20301;-55
2022/09/14 02:26:16;;;;;;;292.93;155.83;;;;;;;;;;5020430;28;20245;-55
2022/09/14 02:28:42;;;;;;;261.80;141.37;;;;;;;;;;5019953;28;20192;-55
2022/09/14 02:31:19;;;;;;;268.03;142.83;;;;;;;;;;5024545;28;20576;-55
2022/09/14 02:33:57;;;;;;;309.43;155.47;;;;;;;;;;5014828;28;20683;-55
2022/09/14 02:36:27;;;;;;;362.97;177.20;;;;;;;;;;5023481;28;21707;-55
2022/09/14 02:39:00;;;;;;;221.00;127.53;;;;;;;;;;5019804;28;20466;-55
2022/09/14 02:41:36;;;;;;;315.47;161.23;;;;;;;;;;5011605;28;20187;-55
2022/09/14 02:44:10;;;;;;;286.07;148.63;;;;;;;;;;5019198;28;20759;-57
2022/09/14 02:46:59;;;;;;;333.00;167.63;;;;;;;;;;5018941;28;21568;-55
2022/09/14 02:49:43;;;;;;;267.27;142.63;;;;;;;;;;5021096;28;20184;-55
2022/09/14 02:52:14;;;;;;;345.80;171.40;;;;;;;;;;5015836;28;20199;-55
2022/09/14 02:54:52;;;;;;;215.17;126.30;;;;;;;;;;5017534;28;20286;-55
2022/09/14 02:57:18;;;;;;;287.03;147.60;;;;;;;;;;5019121;28;20211;-55
2022/09/14 02:59:44;;;;;;;265.67;146.03;;;;;;;;;;5027094;28;20180;-55
2022/09/14 03:02:10;;;;;;;331.87;165.70;;;;;;;;;;5027199;28;20176;-55
2022/09/14 03:04:36;;;;;;;276.17;146.40;;;;;;;;;;5017344;28;20941;-55
2022/09/14 03:07:02;;;;;;;337.47;162.77;;;;;;;;;;5021729;28;20188;-55
2022/09/14 03:09:28;;;;;;;232.67;132.80;;;;;;;;;;5019012;28;20631;-55
2022/09/14 03:11:54;;;;;;;290.10;150.03;;;;;;;;;;5018188;28;20210;-55
2022/09/14 03:14:20;;;;;;;274.43;140.03;;;;;;;;;;5013787;28;21367;-55
2022/09/14 03:16:45;;;;;;;307.27;160.50;;;;;;;;;;5019588;28;20211;-55
2022/09/14 03:19:11;;;;;;;278.57;146.70;;;;;;;;;;5020674;28;20253;-55
2022/09/14 03:21:38;;;;;;;311.67;158.47;;;;;;;;;;5015614;28;20572;-55
2022/09/14 03:24:04;;;;;;;278.87;146.73;;;;;;;;;;5024072;28;20250;-55
2022/09/14 03:26:35;;;;;;;281.40;141.37;;;;;;;;;;5020889;28;20187;-55
2022/09/14 03:29:01;;;;;;;256.90;138.70;;;;;;;;;;5032528;28;20245;-55
2022/09/14 03:31:27;;;;;;;315.60;157.07;;;;;;;;;;5019780;28;20266;-55
2022/09/14 03:33:54;;;;;;;473.55;225.10;;;;;;;;;;5020787;28;20579;-55
2022/09/14 03:36:20;;;;;;;304.63;160.13;;;;;;;;;;5019710;28;20807;-55
2022/09/14 03:38:47;;;;;;;290.30;148.30;;;;;;;;;;5032098;28;20179;-55
2022/09/14 03:41:14;;;;;;;316.13;161.93;;;;;;;;;;5019858;28;20515;-55
2022/09/14 03:43:40;;;;;;;324.90;170.40;;;;;;;;;;5020022;28;20219;-55
2022/09/14 03:46:07;;;;;;;238.13;134.17;;;;;;;;;;5022420;28;20184;-55
2022/09/14 03:48:33;;;;;;;341.43;170.87;;;;;;;;;;5028340;28;20543;-55
2022/09/14 03:51:03;;;;;;;299.73;155.50;;;;;;;;;;5017640;28;20822;-55
2022/09/14 03:53:30;;;;;;;269.03;144.80;;;;;;;;;;5018957;28;20192;-55
2022/09/14 03:55:55;;;;;;;216.07;122.90;;;;;;;;;;5023380;28;20192;-55
2022/09/14 03:58:21;;;;;;;238.30;132.63;;;;;;;;;;5024451;28;20176;-57
2022/09/14 04:00:47;;;;;;;229.93;128.67;;;;;;;;;;5023347;28;20211;-57
2022/09/14 04:03:14;;;;;;;260.37;136.73;;;;;;;;;;5025492;28;20270;-57
2022/09/14 04:05:39;;;;;;;278.00;147.23;;;;;;;;;;5037675;28;20235;-55
2022/09/14 04:08:05;;;;;;;253.77;135.60;;;;;;;;;;5026076;28;20330;-55
2022/09/14 04:10:32;;;;;;;259.17;139.73;;;;;;;;;;5028188;28;20741;-55
2022/09/14 04:12:58;;;;;;;300.17;149.67;;;;;;;;;;5020671;28;22000;-55
2022/09/14 04:15:24;;;;;;;326.93;158.63;;;;;;;;;;5000851;28;20300;-55
2022/09/14 04:17:50;;;;;;;312.97;150.17;;;;;;;;;;5013960;28;20199;-55
2022/09/14 04:20:17;;;;;;;309.63;148.07;;;;;;;;;;5026206;28;20191;-55
2022/09/14 04:22:44;;;;;;;278.03;142.67;;;;;;;;;;5019976;28;20643;-55
2022/09/14 04:25:10;;;;;;;222.93;123.13;;;;;;;;;;5026978;28;20203;-55
2022/09/14 04:27:35;;;;;;;229.90;123.10;;;;;;;;;;5025842;28;20260;-55
2022/09/14 04:30:01;;;;;;;230.20;126.37;;;;;;;;;;5031975;28;20189;-55
2022/09/14 04:32:27;;;;;;;269.17;140.63;;;;;;;;;;5021473;28;20188;-55
2022/09/14 04:34:54;;;;;;;258.57;132.83;;;;;;;;;;5016258;28;20664;-55
2022/09/14 04:37:20;;;;;;;249.03;131.20;;;;;;;;;;5022360;28;20204;-55
2022/09/14 04:39:46;;;;;;;242.07;129.17;;;;;;;;;;5025705;28;20187;-55
2022/09/14 04:42:12;;;;;;;253.40;134.80;;;;;;;;;;5029174;28;20594;-55
2022/09/14 04:44:37;;;;;;;278.53;140.73;;;;;;;;;;5022004;28;20289;-55
2022/09/14 04:47:03;;;;;;;269.17;140.70;;;;;;;;;;5020826;28;20344;-55
2022/09/14 04:49:29;;;;;;;279.23;143.97;;;;;;;;;;5019062;28;20209;-55
2022/09/14 04:51:55;;;;;;;308.93;157.53;;;;;;;;;;5016094;28;20188;-55
2022/09/14 04:54:21;;;;;;;228.10;128.93;;;;;;;;;;5026316;28;20608;-54
2022/09/14 04:56:47;;;;;;;223.50;125.10;;;;;;;;;;5034242;28;20294;-55
2022/09/14 04:59:14;;;;;;;278.80;139.20;;;;;;;;;;5033088;28;20718;-54
2022/09/14 05:01:41;;;;;;;325.23;162.57;;;;;;;;;;5022271;28;20188;-54
2022/09/14 05:04:08;;;;;;;240.70;129.00;;;;;;;;;;5019533;28;20807;-54
2022/09/14 05:06:34;;;;;;;240.17;126.73;;;;;;;;;;5020912;28;20218;-54
2022/09/14 05:09:02;;;;;;;244.07;129.83;;;;;;;;;;4989673;28;20549;-54
2022/09/14 05:11:30;;;;;;;217.40;120.53;;;;;;;;;;5023340;28;20743;-54
2022/09/14 05:13:56;;;;;;;255.27;131.50;;;;;;;;;;5024155;28;20237;-54
2022/09/14 05:16:25;;;;;;;255.00;134.70;;;;;;;;;;5020549;28;20208;-54
2022/09/14 05:18:53;;;;;;;367.43;173.40;;;;;;;;;;5018497;28;20188;-54
2022/09/14 05:21:19;;;;;;;303.30;154.30;;;;;;;;;;5021125;28;20180;-54
2022/09/14 05:23:46;;;;;;;230.73;122.83;;;;;;;;;;5021128;28;20180;-54
2022/09/14 05:26:12;;;;;;;257.47;136.47;;;;;;;;;;5023508;28;20256;-54
2022/09/14 05:28:38;;;;;;;259.20;141.80;;;;;;;;;;5013752;28;20881;-54
2022/09/14 05:31:07;;;;;;;271.97;142.60;;;;;;;;;;5025105;28;20691;-54
2022/09/14 05:33:34;;;;;;;252.13;137.80;;;;;;;;;;5019283;28;20196;-54
2022/09/14 05:36:05;;;;;;;294.63;147.60;;;;;;;;;;5019282;28;20323;-54
2022/09/14 05:38:32;;;;;;;231.23;125.97;;;;;;;;;;5023058;28;20183;-54
2022/09/14 05:40:58;;;;;;;317.30;163.53;;;;;;;;;;5030923;28;20571;-54
2022/09/14 05:43:24;;;;;;;412.97;201.70;;;;;;;;;;5014686;28;20654;-54
2022/09/14 05:45:50;;;;;;;273.40;144.87;;;;;;;;;;5017116;28;20207;-55
2022/09/14 05:48:16;;;;;;;331.07;169.77;;;;;;;;;;5030233;28;20203;-54
2022/09/14 05:50:42;;;;;;;212.00;126.07;;;;;;;;;;5030594;28;20844;-54
2022/09/14 05:53:08;;;;;;;225.47;123.60;;;;;;;;;;5029104;28;20181;-54
2022/09/14 05:55:34;;;;;;;288.83;145.53;;;;;;;;;;5030834;28;20199;-55
2022/09/14 05:58:00;;;;;;;239.13;131.37;;;;;;;;;;5016934;28;20214;-54
2022/09/14 06:00:26;;;;;;;260.83;136.97;;;;;;;;;;5020207;28;25077;-54
2022/09/14 06:02:53;;;;;;;219.33;122.27;;;;;;;;;;5016676;28;20244;-53
2022/09/14 06:05:19;;;;;;;200.00;114.63;;;;;;;;;;5024254;28;20205;-54
2022/09/14 06:07:50;;;;;;;223.30;126.20;;;;;;;;;;5025486;28;20211;-54
2022/09/14 06:10:16;;;;;;;269.13;136.80;;;;;;;;;;5023222;28;20196;-54
2022/09/14 06:12:42;;;;;;;270.43;141.30;;;;;;;;;;5029092;28;20560;-53
2022/09/14 06:15:08;;;;;;;407.57;190.10;;;;;;;;;;5005077;28;20211;-56
2022/09/14 06:17:34;;;;;;;349.87;174.53;;;;;;;;;;5013944;28;20975;-56
2022/09/14 06:20:00;;;;;;;258.83;139.23;;;;;;;;;;5029109;28;20180;-56
2022/09/14 06:22:25;;;;;;;234.93;130.00;;;;;;;;;;5035231;28;20203;-56
2022/09/14 06:24:52;;;;;;;251.23;137.63;;;;;;;;;;5030227;28;20230;-56
2022/09/14 06:27:18;;;;;;;309.33;160.73;;;;;;;;;;5029866;28;20437;-56
2022/09/14 06:29:44;;;;;;;312.53;162.30;;;;;;;;;;5024852;28;20245;-56
2022/09/14 06:32:10;;;;;;;214.13;121.97;;;;;;;;;;5036230;28;20194;-55
2022/09/14 06:34:36;;;;;;;233.87;131.47;;;;;;;;;;5033040;28;20587;-55
2022/09/14 06:37:02;;;;;;;253.13;136.00;;;;;;;;;;5038469;28;20525;-55
2022/09/14 06:39:27;;;;;;;254.87;139.43;;;;;;;;;;5033805;28;20323;-55
2022/09/14 06:41:53;;;;;;;211.73;119.17;;;;;;;;;;5042867;28;20207;-55
2022/09/14 06:44:19;;;;;;;323.98;164.68;;;;;;;;;;5043419;28;20225;-55
2022/09/14 06:46:45;;;;;;;241.53;138.03;;;;;;;;;;5029679;28;20567;-55
2022/09/14 06:49:12;;;;;;;249.27;140.13;;;;;;;;;;5037288;28;20275;-55
2022/09/14 06:51:39;;;;;;;260.97;141.80;;;;;;;;;;5035237;28;20240;-53
2022/09/14 06:54:06;;;;;;;274.80;146.65;;;;;;;;;;5030173;28;20223;-53
2022/09/14 06:56:33;;;;;;;234.50;132.27;;;;;;;;;;5042576;28;20207;-53
2022/09/14 06:58:59;;;;;;;338.10;170.83;;;;;;;;;;5015139;28;20199;-53
2022/09/14 07:01:25;;;;;;;305.45;161.10;;;;;;;;;;5041037;28;20180;-53
2022/09/14 07:03:52;;;;;;;262.05;143.77;;;;;;;;;;5032710;28;20259;-55
2022/09/14 07:06:20;;;;;;;233.30;133.03;;;;;;;;;;5039835;28;20207;-55
2022/09/14 07:08:46;;;;;;;239.93;138.10;;;;;;;;;;5037910;28;20560;-55
2022/09/14 07:11:13;;;;;;;216.30;130.90;;;;;;;;;;5043570;28;20192;-55
2022/09/14 07:13:39;;;;;;;211.38;123.57;;;;;;;;;;5044773;28;20225;-55
2022/09/14 07:16:06;;;;;;;192.47;118.00;;;;;;;;;;5047899;28;20636;-55
2022/09/14 07:18:32;;;;;;;216.05;124.30;;;;;;;;;;5047194;28;20651;-55
2022/09/14 07:21:05;;;;;;;255.77;141.10;;;;;;;;;;5048270;28;20607;-55
2022/09/14 07:23:31;;;;;;;229.73;128.80;;;;;;;;;;5037409;28;20983;-55
2022/09/14 07:26:01;;;;;;;218.75;123.07;;;;;;;;;;5043255;28;20188;-55
2022/09/14 07:28:27;;;;;;;226.43;127.47;;;;;;;;;;5046051;28;20175;-55
2022/09/14 07:30:53;;;;;;;229.40;129.57;;;;;;;;;;5042932;28;20237;-55
2022/09/14 07:33:19;;;;;;;268.57;151.80;;;;;;;;;;5034767;28;20187;-55
2022/09/14 07:35:45;;;;;;;232.80;137.45;;;;;;;;;;5038335;28;20209;-55
2022/09/14 07:38:11;;;;;;;246.93;141.47;;;;;;;;;;5043877;28;20290;-55
2022/09/14 07:40:37;;;;;;;227.57;134.50;;;;;;;;;;5039608;28;20317;-55
2022/09/14 07:43:03;;;;;;;211.43;124.43;;;;;;;;;;5036745;28;20177;-55
2022/09/14 07:45:30;;;;;;;261.17;142.75;;;;;;;;;;5036829;28;20246;-55
2022/09/14 07:47:56;;;;;;;217.05;127.28;;;;;;;;;;5039622;28;20499;-55
2022/09/14 07:50:22;;;;;;;283.05;150.40;;;;;;;;;;5040928;28;20544;-55
2022/09/14 07:52:51;;;;;;;225.27;131.27;;;;;;;;;;5043216;28;20179;-55
2022/09/14 07:55:17;;;;;;;255.93;148.82;;;;;;;;;;5041953;28;20277;-55
2022/09/14 07:57:45;;;;;;;244.07;146.45;;;;;;;;;;5048383;28;20242;-55
2022/09/14 08:00:11;;;;;;;247.57;149.35;;;;;;;;;;5038382;28;20647;-55
2022/09/14 08:02:37;;;;;;;288.85;165.57;;;;;;;;;;5041890;28;20258;-55
2022/09/14 08:05:03;;;;;;;250.30;148.50;;;;;;;;;;5038762;28;20604;-55
2022/09/14 08:07:29;;;;;;;266.33;154.43;;;;;;;;;;5036520;28;20186;-55
2022/09/14 08:09:55;;;;;;;268.23;158.43;;;;;;;;;;5037447;28;20259;-55
2022/09/14 08:12:21;;;;;;;233.57;143.15;;;;;;;;;;5042005;28;20187;-55
2022/09/14 08:14:47;;;;;;;236.15;144.90;;;;;;;;;;5044720;28;20741;-55
2022/09/14 08:17:13;;;;;;;226.13;134.55;;;;;;;;;;5025618;28;20191;-55
2022/09/14 08:19:40;;;;;;;253.70;142.80;;;;;;;;;;5043351;28;20186;-55
2022/09/14 08:22:06;;;;;;;246.95;142.77;;;;;;;;;;5039906;28;20488;-55
2022/09/14 08:24:32;;;;;;;277.03;151.13;;;;;;;;;;5042560;28;20211;-55
2022/09/14 08:26:58;;;;;;;235.05;140.20;;;;;;;;;;5047035;28;20271;-55
2022/09/14 08:29:25;;;;;;;259.85;149.32;;;;;;;;;;5044258;28;20180;-55
2022/09/14 08:31:51;;;;;;;242.55;143.57;;;;;;;;;;5043322;28;20219;-55
2022/09/14 08:34:18;;;;;;;267.67;151.48;;;;;;;;;;5039737;28;20205;-55
2022/09/14 08:36:45;;;;;;;265.92;151.65;;;;;;;;;;5045821;28;20292;-55
2022/09/14 08:39:12;;;;;;;233.98;141.23;;;;;;;;;;5040027;28;20199;-55
2022/09/14 08:41:38;;;;;;;245.70;148.20;;;;;;;;;;5042978;28;20185;-55
2022/09/14 08:44:14;;;;;;;248.63;146.48;;;;;;;;;;5045419;28;20753;-55
2022/09/14 08:47:01;;;;;;;241.60;148.60;;;;;;;;;;5042826;28;20384;-55
2022/09/14 08:49:34;;;;;;;248.40;148.90;;;;;;;;;;5040774;28;20184;-55
2022/09/14 08:52:01;;;;;;;237.02;142.18;;;;;;;;;;5046336;28;20183;-55
2022/09/14 08:54:27;;;;;;;272.98;162.85;;;;;;;;;;5025780;28;20334;-55
2022/09/14 08:56:58;;;;;;;272.25;161.02;;;;;;;;;;5041486;28;20750;-55
2022/09/14 08:59:24;;;;;;;261.70;158.70;;;;;;;;;;5044617;28;20180;-55
2022/09/14 09:02:23;;;;;;;249.63;153.48;;;;;;;;;;5038080;28;20645;-55
2022/09/14 09:04:55;;;;;;;320.80;199.43;;;;;;;;;;4987062;22;20677;-51
2022/09/14 09:07:24;;;;;;;315.73;192.75;;;;;;;;;;5006480;28;20332;-51
2022/09/14 09:09:51;;;;;;;301.92;189.30;;;;;;;;;;5001267;28;20367;-51
2022/09/14 09:12:18;;;;;;;320.10;196.25;;;;;;;;;;5002251;28;20662;-51
2022/09/14 09:14:52;;;;;;;326.67;197.18;;;;;;;;;;5006712;28;20805;-51
2022/09/14 09:17:21;;;;;;;286.52;180.80;;;;;;;;;;4998531;28;20763;-51
2022/09/14 09:19:53;;;;;;;302.20;190.77;;;;;;;;;;4995685;28;20192;-51
2022/09/14 09:22:21;;;;;;;285.73;181.43;;;;;;;;;;5014778;28;20545;-51
2022/09/14 09:24:53;;;;;;;315.67;201.48;;;;;;;;;;5013192;28;21048;-49
2022/09/14 09:27:18;;;;;;;326.77;199.43;;;;;;;;;;5010133;28;20246;-49
2022/09/14 09:29:44;;;;;;;272.17;168.80;;;;;;;;;;5010454;28;20657;-49
2022/09/14 09:32:16;;;;;;;293.58;186.90;;;;;;;;;;5009279;28;20343;-49
2022/09/14 09:34:42;;;;;;;287.05;178.45;;;;;;;;;;5010008;28;20216;-49
2022/09/14 09:37:13;;;;;;;321.67;206.13;;;;;;;;;;5009542;28;20244;-49
2022/09/14 09:39:39;;;;;;;329.30;209.35;;;;;;;;;;5012237;28;20309;-49
2022/09/14 09:42:13;;;;;;;317.63;201.82;;;;;;;;;;5003085;28;20291;-49
2022/09/14 09:44:53;;;;;;;295.70;188.40;;;;;;;;;;5012812;28;20250;-49
2022/09/14 09:47:25;;;;;;;300.75;188.20;;;;;;;;;;5007967;28;20184;-49
2022/09/14 09:49:56;;;;;;;296.30;196.20;;;;;;;;;;5001701;28;20189;-49
2022/09/14 09:52:23;;;;;;;315.65;205.95;;;;;;;;;;5016379;28;20189;-49
2022/09/14 09:54:50;;;;;;;322.25;201.63;;;;;;;;;;5016141;28;20331;-49
2022/09/14 09:57:27;;;;;;;295.73;197.38;;;;;;;;;;5011184;28;20243;-48
2022/09/14 10:00:07;;;;;;;325.33;212.80;;;;;;;;;;5008282;28;20342;-48
2022/09/14 10:02:33;;;;;;;324.17;213.68;;;;;;;;;;5007755;28;20557;-49
2022/09/14 10:04:59;;;;;;;327.75;221.18;;;;;;;;;;5009737;28;20219;-48
2022/09/14 10:07:25;;;;;;;320.75;214.55;;;;;;;;;;5008682;28;20211;-49
2022/09/14 10:09:59;;;;;;;337.05;222.32;;;;;;;;;;5014139;28;20192;-48
2022/09/14 10:12:25;;;;;;;422.17;264.77;;;;;;;;;;4985533;28;20204;-49
2022/09/14 10:15:02;;;;;;;407.08;257.40;;;;;;;;;;4977998;28;20208;-49
2022/09/14 10:17:28;;;;;;;341.88;220.02;;;;;;;;;;5004242;28;20632;-49
2022/09/14 10:19:54;;;;;;;348.88;231.38;;;;;;;;;;4992538;28;20202;-51
2022/09/14 10:22:28;;;;;;;314.00;209.18;;;;;;;;;;5006328;28;20209;-51
2022/09/14 10:24:54;;;;;;;350.27;227.20;;;;;;;;;;5009025;28;20299;-49
2022/09/14 10:27:35;;;;;;;338.75;221.68;;;;;;;;;;5009099;28;20231;-49
2022/09/14 10:30:06;;;;;;;336.23;215.80;;;;;;;;;;5011011;28;20200;-49
2022/09/14 10:32:33;;;;;;;327.52;215.43;;;;;;;;;;5008371;28;20184;-52
2022/09/14 10:34:59;;;;;;;309.95;203.18;;;;;;;;;;5001527;28;20674;-51
2022/09/14 10:37:25;;;;;;;313.27;213.82;;;;;;;;;;5005978;28;20280;-51
2022/09/14 10:40:01;;;;;;;403.25;254.18;;;;;;;;;;5006593;28;20176;-49
2022/09/14 10:42:32;;;;;;;359.58;235.23;;;;;;;;;;5003645;28;20180;-49
2022/09/14 10:44:58;;;;;;;381.55;249.88;;;;;;;;;;4995945;28;20212;-48
2022/09/14 10:47:44;;;;;;;434.90;276.20;;;;;;;;;;4993613;28;20628;-49
2022/09/14 10:50:19;;;;;;;313.73;204.13;;;;;;;;;;4998508;28;20211;-49
2022/09/14 10:52:54;;;;;;;373.60;240.23;;;;;;;;;;4993946;28;20490;-49
2022/09/14 10:55:42;;;;;;;418.95;262.17;;;;;;;;;;4992977;28;20231;-49
2022/09/14 10:58:30;;;;;;;358.25;233.65;;;;;;;;;;4998692;28;20303;-49
2022/09/14 11:01:08;;;;;;;390.42;255.77;;;;;;;;;;4990053;28;20202;-49
2022/09/14 11:03:37;;;;;;;372.15;243.77;;;;;;;;;;4996144;28;20653;-49
2022/09/14 11:06:21;;;;;;;435.90;279.75;;;;;;;;;;4990303;28;20232;-49
2022/09/14 11:08:52;;;;;;;353.52;225.85;;;;;;;;;;5000384;28;20430;-49
2022/09/14 11:11:18;;;;;;;405.15;262.85;;;;;;;;;;4990945;28;20235;-49
2022/09/14 11:13:49;;;;;;;382.88;248.70;;;;;;;;;;4980443;28;20189;-49
2022/09/14 11:16:26;;;;;;;416.70;271.88;;;;;;;;;;4991114;28;20191;-49
2022/09/14 11:18:52;;;;;;;419.25;271.77;;;;;;;;;;4995496;28;20229;-49
2022/09/14 11:21:36;;;;;;;360.13;239.07;;;;;;;;;;4994267;28;20189;-49
2022/09/14 11:24:07;;;;;;;356.75;238.15;;;;;;;;;;4999806;28;20699;-49
2022/09/14 11:26:36;;;;;;;322.27;220.80;;;;;;;;;;5002186;28;20180;-49
2022/09/14 11:29:08;;;;;;;344.30;233.82;;;;;;;;;;5002468;28;20639;-50
2022/09/14 11:31:48;;;;;;;372.08;246.70;;;;;;;;;;5006344;28;20223;-50
2022/09/14 11:34:19;;;;;;;377.50;246.82;;;;;;;;;;4998122;28;20258;-50
2022/09/14 11:36:48;;;;;;;300.88;194.95;;;;;;;;;;5013009;28;20316;-50
2022/09/14 11:39:20;;;;;;;370.10;226.65;;;;;;;;;;4998162;28;20600;-50
2022/09/14 11:41:51;;;;;;;361.90;227.18;;;;;;;;;;5004170;28;20185;-50
2022/09/14 11:44:21;;;;;;;341.15;229.30;;;;;;;;;;5006646;28;20211;-50
2022/09/14 11:46:51;;;;;;;335.33;217.63;;;;;;;;;;5002647;28;20227;-50
2022/09/14 11:49:39;;;;;;;330.10;214.32;;;;;;;;;;5010223;28;20723;-50
2022/09/14 11:52:19;;;;;;;318.10;203.57;;;;;;;;;;5013887;28;20723;-50
2022/09/14 11:54:45;;;;;;;335.75;214.85;;;;;;;;;;5000330;28;20215;-50
2022/09/14 11:57:16;;;;;;;306.88;197.32;;;;;;;;;;5013050;28;20201;-50
2022/09/14 11:59:43;;;;;;;292.92;186.73;;;;;;;;;;5016248;28;20192;-49
2022/09/14 12:02:27;;;;;;;386.90;234.43;;;;;;;;;;5012554;28;20181;-49
2022/09/14 12:05:16;;;;;;;315.02;199.93;;;;;;;;;;5011102;28;20243;-50
2022/09/14 12:07:42;;;;;;;296.42;201.90;;;;;;;;;;5005462;28;20218;-50
2022/09/14 12:10:15;;;;;;;373.40;242.50;;;;;;;;;;5009084;28;20180;-50
2022/09/14 12:12:42;;;;;;;386.30;252.02;;;;;;;;;;5006323;28;20199;-50
2022/09/14 12:15:13;;;;;;;346.42;231.82;;;;;;;;;;5011391;28;20481;-50
2022/09/14 12:17:40;;;;;;;335.40;208.98;;;;;;;;;;5011531;28;20269;-50
2022/09/14 12:20:25;;;;;;;438.52;270.08;;;;;;;;;;5007195;28;20172;-50
2022/09/14 12:22:52;;;;;;;349.55;215.95;;;;;;;;;;5011029;28;22088;-50
2022/09/14 12:25:19;;;;;;;391.13;248.23;;;;;;;;;;5002419;28;20295;-50
2022/09/14 12:27:47;;;;;;;347.30;223.80;;;;;;;;;;5009893;28;20196;-49
2022/09/14 12:30:34;;;;;;;356.38;227.38;;;;;;;;;;5001081;28;20192;-49
2022/09/14 12:33:01;;;;;;;355.50;223.77;;;;;;;;;;5006375;28;20188;-50
2022/09/14 12:35:33;;;;;;;401.77;248.75;;;;;;;;;;5008537;28;20522;-50
2022/09/14 12:38:00;;;;;;;369.65;222.98;;;;;;;;;;5008093;28;20932;-51
2022/09/14 12:40:30;;;;;;;523.80;272.15;;;;;;;;;;4997713;28;20299;-50
2022/09/14 12:42:56;;;;;;;382.73;227.93;;;;;;;;;;5004284;28;20594;-50
2022/09/14 12:45:40;;;;;;;402.10;239.77;;;;;;;;;;5014882;28;20204;-50
2022/09/14 12:48:07;;;;;;;389.00;227.05;;;;;;;;;;5008545;28;20578;-50
2022/09/14 12:50:35;;;;;;;371.70;214.35;;;;;;;;;;5011143;28;20176;-50
2022/09/14 12:53:11;;;;;;;376.45;221.00;;;;;;;;;;5005930;28;20235;-50
2022/09/14 12:55:40;;;;;;;481.70;286.77;;;;;;;;;;5009014;28;20212;-50
2022/09/14 12:58:06;;;;;;;448.20;266.50;;;;;;;;;;5008792;28;20208;-50
2022/09/14 13:00:44;;;;;;;457.10;265.52;;;;;;;;;;5008763;28;20211;-50
2022/09/14 13:03:32;;;;;;;457.88;267.40;;;;;;;;;;5006044;28;20180;-50
2022/09/14 13:05:58;;;;;;;453.15;261.35;;;;;;;;;;5001437;28;20196;-51
2022/09/14 13:08:24;;;;;;;442.92;254.35;;;;;;;;;;5004085;28;20534;-50
2022/09/14 13:10:51;;;;;;;433.35;262.27;;;;;;;;;;5002373;28;20184;-50
2022/09/14 13:13:18;;;;;;;440.63;258.45;;;;;;;;;;5007922;28;20432;-50
2022/09/14 13:15:55;;;;;;;444.98;262.05;;;;;;;;;;5007454;28;20235;-50
2022/09/14 13:18:21;;;;;;;388.45;224.07;;;;;;;;;;5005606;28;20280;-50
2022/09/14 13:20:51;;;;;;;448.85;257.52;;;;;;;;;;5015659;28;20180;-50
2022/09/14 13:23:26;;;;;;;388.98;236.75;;;;;;;;;;5009490;28;20188;-50
2022/09/14 13:25:53;;;;;;;411.40;240.70;;;;;;;;;;5000716;28;20611;-50
2022/09/14 13:28:19;;;;;;;427.15;249.65;;;;;;;;;;5019771;28;20242;-50
2022/09/14 13:30:59;;;;;;;406.55;241.73;;;;;;;;;;5009806;28;20250;-50
2022/09/14 13:33:25;;;;;;;413.70;234.60;;;;;;;;;;5011286;28;20621;-50
2022/09/14 13:35:53;;;;;;;406.27;227.85;;;;;;;;;;5004303;28;20209;-50
2022/09/14 13:38:21;;;;;;;409.85;230.45;;;;;;;;;;5012229;28;20264;-50
2022/09/14 13:40:49;;;;;;;405.85;223.43;;;;;;;;;;5012484;28;20545;-50
2022/09/14 13:43:18;;;;;;;403.02;225.00;;;;;;;;;;5013153;28;20212;-50
2022/09/14 13:45:44;;;;;;;443.05;246.38;;;;;;;;;;5007517;28;20515;-50
2022/09/14 13:48:13;;;;;;;411.90;231.10;;;;;;;;;;5010353;28;20208;-50
2022/09/14 13:50:39;;;;;;;389.85;219.98;;;;;;;;;;5013541;28;20625;-50
2022/09/14 13:53:05;;;;;;;435.25;241.90;;;;;;;;;;5003095;28;20188;-50
2022/09/14 13:55:31;;;;;;;466.98;263.77;;;;;;;;;;5003535;28;20208;-50
2022/09/14 13:58:04;;;;;;;407.75;225.38;;;;;;;;;;5008427;28;20584;-50
2022/09/14 14:00:31;;;;;;;425.90;239.82;;;;;;;;;;5004724;28;20181;-50
2022/09/14 14:03:01;;;;;;;447.02;253.82;;;;;;;;;;5012092;28;20214;-50